Estación Meteorológica Peña el Pijo (Robertgarden) [ 12/10/18 11:15:38 CET ]

Fecha Hora Presion(HPa) Temp (°C) Humedad % Rocio (°C) Viento ( m/s) Direccion Lluvia 1Hora(mm) Lluvia 24H(mm) LLuvia Total(mm)
2018-Oct-24 01:01:54 1017.000 8.2 86 6.0         84.95
2018-Oct-24 02:01:56 1017.100 7.3 87 5.3         84.95
2018-Oct-24 03:01:39 1016.800 7.1 88 5.3         84.95
2018-Oct-24 04:07:04 1016.400 6.8 88 5.0         84.95
2018-Oct-24 05:01:52 1016.100 6.8 88 5.0         84.95
2018-Oct-24 06:02:01 1016.200 6.8 89 5.1         84.95
2018-Oct-24 07:01:52 1016.000 6.7 89 5.0         84.95
2018-Oct-24 08:01:56 1015.800 6.9 90 5.4         84.95
2018-Oct-24 09:01:57 1016.000 6.5 90 5.0         84.95
2018-Oct-24 10:01:51 1016.300 9.9 91 8.5         84.95
2018-Oct-24 11:01:43 1016.000 15.8 89 14.0         84.95
2018-Oct-24 12:02:01 1015.800 21.0 62 13.5         84.95
2018-Oct-24 13:01:40 1015.600 21.5 51 10.9         84.95
2018-Oct-24 14:01:38 1014.800 21.6 35 5.4         84.95
2018-Oct-24 15:01:39 1014.200 23.4 33 6.1         84.95
2018-Oct-24 16:01:45 1013.600 23.7 30 5.1         84.95
2018-Oct-24 17:01:53 1013.200 23.9 31 5.7         84.95
2018-Oct-24 18:01:53 1013.200 22.3 33 5.2         84.95
2018-Oct-24 19:01:24 1013.200 16.7 46 4.9         84.95
2018-Oct-24 20:01:50 1013.400 13.8 55 4.9         84.95
2018-Oct-24 21:01:38 1013.700 10.4 65 4.1         84.95
2018-Oct-24 22:01:41 1013.900 9.3 71 4.3         84.95
2018-Oct-24 23:01:41 1014.100 7.8 74 3.5         84.95

Temperatura Máxima:23°    Temperatura Mínima:
Presión Máxima:1017.100 Hpa    Presión Mínima:1013.200 Hpa


Volver